Time;durP1;ratioP1;P1;durP2;ratioP2;P2;SDS_P1;SDS_P2;PMS_P1;PMS_P2;Temp;Humidity;BMP_temperature;BMP_pressure;BME280_temperature;BME280_humidity;BME280_pressure;Samples;Min_cycle;Max_cycle;Signal;HPM_P1;HPM_P2
2022/12/07 00:01:06;;;;;;;33.63;30.93;;;;;;;-141.22;100.00;65034.22;5053907;28;20766;-52
2022/12/07 00:03:34;;;;;;;35.27;32.60;;;;;;;-141.22;100.00;65034.22;5053025;28;20462;-49
2022/12/07 00:06:04;;;;;;;34.10;31.40;;;;;;;-141.22;100.00;65034.22;5053600;28;20447;-49
2022/12/07 00:08:33;;;;;;;36.47;33.47;;;;;;;-141.22;100.00;65034.22;5053292;28;20482;-50
2022/12/07 00:11:03;;;;;;;33.80;31.10;;;;;;;-141.22;100.00;65034.22;5053251;28;20781;-49
2022/12/07 00:13:31;;;;;;;34.60;32.00;;;;;;;-141.22;100.00;65034.22;5052578;28;20467;-51
2022/12/07 00:16:01;;;;;;;34.63;32.00;;;;;;;-141.22;100.00;65034.22;5053044;28;20458;-52
2022/12/07 00:18:29;;;;;;;35.87;32.97;;;;;;;-141.22;100.00;65034.22;5052747;28;20457;-51
2022/12/07 00:21:00;;;;;;;34.33;31.83;;;;;;;-141.22;100.00;65034.22;5053283;28;20438;-52
2022/12/07 00:23:30;;;;;;;34.43;31.83;;;;;;;-141.22;100.00;65034.22;5052365;28;20463;-47
2022/12/07 00:26:04;;;;;;;32.23;29.93;;;;;;;-141.22;100.00;65034.22;5053010;28;20459;-50
2022/12/07 00:28:33;;;;;;;32.37;30.13;;;;;;;-141.22;100.00;65034.22;5052973;28;20561;-48
2022/12/07 00:31:02;;;;;;;33.67;31.17;;;;;;;-141.22;100.00;65034.22;5052583;28;20435;-48
2022/12/07 00:33:30;;;;;;;33.70;31.47;;;;;;;-141.22;100.00;65034.22;5051744;28;20463;-48
2022/12/07 00:35:58;;;;;;;35.10;32.57;;;;;;;-141.22;100.00;65034.22;5052294;28;20458;-52
2022/12/07 00:38:28;;;;;;;33.80;31.10;;;;;;;-141.22;100.00;65034.22;5052836;28;20431;-53
2022/12/07 00:40:59;;;;;;;32.67;30.27;;;;;;;-141.22;100.00;65034.22;5052781;28;20451;-48
2022/12/07 00:43:28;;;;;;;33.83;31.43;;;;;;;-141.22;100.00;65034.22;5052088;28;20463;-53
2022/12/07 00:45:56;;;;;;;34.97;32.47;;;;;;;-141.22;100.00;65034.22;5052469;28;20459;-50
2022/12/07 00:48:24;;;;;;;29.87;27.70;;;;;;;-141.22;100.00;65034.22;5052844;28;20466;-46
2022/12/07 00:50:52;;;;;;;30.47;28.47;;;;;;;-141.22;100.00;65034.22;5056746;28;20647;-50
2022/12/07 00:53:20;;;;;;;30.67;28.33;;;;;;;-141.22;100.00;65034.22;5056230;28;20462;-50
2022/12/07 00:55:48;;;;;;;28.87;27.17;;;;;;;-141.22;100.00;65034.22;5056997;28;20562;-48
2022/12/07 00:58:17;;;;;;;30.77;28.73;;;;;;;-141.22;100.00;65034.22;5056724;28;20427;-49
2022/12/07 01:00:45;;;;;;;30.23;28.33;;;;;;;-141.22;100.00;65034.22;5056532;28;20435;-49
2022/12/07 01:03:14;;;;;;;31.30;29.10;;;;;;;-141.22;100.00;65034.22;5055686;28;20462;-51
2022/12/07 01:05:50;;;;;;;31.57;29.47;;;;;;;-141.22;100.00;65034.22;5056280;28;20459;-47
2022/12/07 01:08:18;;;;;;;31.50;29.10;;;;;;;-141.22;100.00;65034.22;5056796;28;20478;-45
2022/12/07 01:10:46;;;;;;;31.70;29.60;;;;;;;-141.22;100.00;65034.22;5056819;28;21031;-46
2022/12/07 01:13:14;;;;;;;32.87;30.60;;;;;;;-141.22;100.00;65034.22;5056561;28;20470;-46
2022/12/07 01:15:44;;;;;;;32.60;30.50;;;;;;;-141.22;100.00;65034.22;5057069;28;20476;-49
2022/12/07 01:18:12;;;;;;;32.47;30.27;;;;;;;-141.22;100.00;65034.22;5057416;28;20419;-47
2022/12/07 01:20:40;;;;;;;33.27;30.90;;;;;;;-141.22;100.00;65034.22;5056903;28;20440;-47
2022/12/07 01:23:07;;;;;;;34.60;32.13;;;;;;;-141.22;100.00;65034.22;5056185;28;21066;-47
2022/12/07 01:25:35;;;;;;;34.37;31.90;;;;;;;-141.22;100.00;65034.22;5056649;28;20451;-50
2022/12/07 01:28:02;;;;;;;35.63;33.00;;;;;;;-141.22;100.00;65034.22;5056727;28;20987;-46
2022/12/07 01:30:30;;;;;;;37.33;33.87;;;;;;;-141.22;100.00;65034.22;5056929;28;20426;-50
2022/12/07 01:32:59;;;;;;;34.33;31.77;;;;;;;-141.22;100.00;65034.22;5056199;28;20482;-51
2022/12/07 01:35:27;;;;;;;33.80;31.40;;;;;;;-141.22;100.00;65034.22;5056309;28;20469;-48
2022/12/07 01:37:54;;;;;;;34.33;31.70;;;;;;;-141.22;100.00;65034.22;5056507;28;20435;-46
2022/12/07 01:40:22;;;;;;;35.53;32.87;;;;;;;-141.22;100.00;65034.22;5056319;28;20431;-48
2022/12/07 01:42:49;;;;;;;35.90;33.00;;;;;;;-141.22;100.00;65034.22;5055764;28;20463;-50
2022/12/07 01:45:39;;;;;;;35.23;32.60;;;;;;;-141.22;100.00;65034.22;5056270;28;20995;-49
2022/12/07 01:48:10;;;;;;;37.87;34.87;;;;;;;-141.22;100.00;65034.22;5056394;28;20471;-46
2022/12/07 01:50:39;;;;;;;36.73;33.70;;;;;;;-141.22;100.00;65034.22;5056028;28;20435;-47
2022/12/07 01:53:10;;;;;;;37.37;34.27;;;;;;;-141.22;100.00;65034.22;5055853;28;20454;-50
2022/12/07 01:55:42;;;;;;;36.40;33.60;;;;;;;-141.22;100.00;65034.22;5056398;28;20451;-46
2022/12/07 01:58:12;;;;;;;36.97;34.03;;;;;;;-141.22;100.00;65034.22;5056085;28;20511;-49
2022/12/07 02:00:41;;;;;;;38.03;34.73;;;;;;;-141.22;100.00;65034.22;5055744;28;20440;-49
2022/12/07 02:03:17;;;;;;;37.70;34.60;;;;;;;-141.22;100.00;65034.22;5053574;28;20810;-49
2022/12/07 02:05:47;;;;;;;38.30;35.17;;;;;;;-141.22;100.00;65034.22;5052363;28;20812;-49
2022/12/07 02:08:15;;;;;;;36.17;33.57;;;;;;;-141.22;100.00;65034.22;5045675;28;20478;-50
2022/12/07 02:10:43;;;;;;;36.63;33.77;;;;;;;-141.22;100.00;65034.22;5054911;28;20436;-47
2022/12/07 02:13:13;;;;;;;39.13;35.40;;;;;;;-141.22;100.00;65034.22;5055606;28;20459;-46
2022/12/07 02:16:00;;;;;;;37.27;34.53;;;;;;;-141.22;100.00;65034.22;5056057;28;20824;-46
2022/12/07 02:18:42;;;;;;;37.43;34.40;;;;;;;-141.22;100.00;65034.22;5055652;28;20481;-49
2022/12/07 02:21:17;;;;;;;38.47;35.07;;;;;;;-141.22;100.00;65034.22;5055670;28;21145;-49
2022/12/07 02:24:13;;;;;;;37.20;34.33;;;;;;;-141.22;100.00;65034.22;5054669;28;20462;-49
2022/12/07 02:27:11;;;;;;;39.50;36.03;;;;;;;-141.22;100.00;65034.22;5055646;28;20439;-51
2022/12/07 02:29:46;;;;;;;37.63;34.53;;;;;;;-141.22;100.00;65034.22;5055392;28;20998;-49
2022/12/07 02:32:19;;;;;;;37.23;34.03;;;;;;;-141.22;100.00;65034.22;5055240;28;20462;-48
2022/12/07 02:34:51;;;;;;;35.70;32.80;;;;;;;-141.22;100.00;65034.22;5055145;28;20463;-49
2022/12/07 02:37:30;;;;;;;37.90;35.10;;;;;;;-141.22;100.00;65034.22;5055947;28;20436;-48
2022/12/07 02:40:01;;;;;;;35.63;32.93;;;;;;;-141.22;100.00;65034.22;5055441;28;20427;-51
2022/12/07 02:42:34;;;;;;;37.67;34.77;;;;;;;-141.22;100.00;65034.22;5055189;28;20478;-49
2022/12/07 02:45:06;;;;;;;36.83;34.03;;;;;;;-141.22;100.00;65034.22;5055400;28;20448;-48
2022/12/07 02:47:35;;;;;;;39.10;35.60;;;;;;;-141.22;100.00;65034.22;5055872;28;20443;-47
2022/12/07 02:50:04;;;;;;;38.60;35.30;;;;;;;-141.22;100.00;65034.22;5055815;28;20477;-51
2022/12/07 02:52:32;;;;;;;38.77;35.43;;;;;;;-141.22;100.00;65034.22;5054863;28;20486;-47
2022/12/07 02:55:00;;;;;;;38.97;35.57;;;;;;;-141.22;100.00;65034.22;5055096;28;20459;-49
2022/12/07 02:57:42;;;;;;;41.47;37.70;;;;;;;-141.22;100.00;65034.22;5055258;28;20940;-47
2022/12/07 03:00:16;;;;;;;38.80;35.80;;;;;;;-141.22;100.00;65034.22;5055425;28;20423;-50
2022/12/07 03:02:52;;;;;;;38.70;35.47;;;;;;;-141.22;100.00;65034.22;5054672;28;20484;-48
2022/12/07 03:05:39;;;;;;;40.57;36.83;;;;;;;-141.22;100.00;65034.22;5055395;28;20457;-50
2022/12/07 03:08:14;;;;;;;40.20;37.10;;;;;;;-141.22;100.00;65034.22;5055056;28;20435;-52
2022/12/07 03:10:49;;;;;;;40.27;36.97;;;;;;;-141.22;100.00;65034.22;5055571;28;20471;-49
2022/12/07 03:13:24;;;;;;;41.83;37.87;;;;;;;-141.22;100.00;65034.22;5054095;28;20463;-50
2022/12/07 03:15:59;;;;;;;38.97;35.07;;;;;;;-141.22;100.00;65034.22;5054756;28;20959;-48
2022/12/07 03:18:31;;;;;;;39.33;35.90;;;;;;;-141.22;100.00;65034.22;5054778;28;20932;-48
2022/12/07 03:21:06;;;;;;;38.37;35.07;;;;;;;-141.22;100.00;65034.22;5054726;28;20443;-52
2022/12/07 03:23:35;;;;;;;39.67;36.20;;;;;;;-141.22;100.00;65034.22;5053832;28;20820;-52
2022/12/07 03:26:05;;;;;;;39.67;36.40;;;;;;;-141.22;100.00;65034.22;5054789;28;20451;-46
2022/12/07 03:28:37;;;;;;;40.10;36.40;;;;;;;-141.22;100.00;65034.22;5055252;28;20461;-51
2022/12/07 03:31:13;;;;;;;38.47;35.13;;;;;;;-141.22;100.00;65034.22;5051659;28;20969;-47
2022/12/07 03:33:49;;;;;;;38.97;35.67;;;;;;;-141.22;100.00;65034.22;5048990;28;20494;-47
2022/12/07 03:36:22;;;;;;;41.37;37.67;;;;;;;-141.22;100.00;65034.22;5048971;28;20481;-48
2022/12/07 03:38:56;;;;;;;40.23;36.80;;;;;;;-141.22;100.00;65034.22;5066997;22;20488;-46
2022/12/07 03:41:27;;;;;;;39.60;36.10;;;;;;;-141.22;100.00;65034.22;5037481;28;20430;-44
2022/12/07 03:43:56;;;;;;;38.13;34.97;;;;;;;-141.22;100.00;65034.22;5052199;28;20938;-45
2022/12/07 03:46:37;;;;;;;39.70;36.23;;;;;;;-141.22;100.00;65034.22;5052543;28;20431;-48
2022/12/07 03:49:10;;;;;;;36.37;33.47;;;;;;;-141.22;100.00;65034.22;5052167;28;20479;-45
2022/12/07 03:51:43;;;;;;;38.87;35.63;;;;;;;-141.22;100.00;65034.22;5051909;28;20426;-45
2022/12/07 03:54:17;;;;;;;36.40;33.03;;;;;;;-141.22;100.00;65034.22;5052221;28;20411;-46
2022/12/07 03:56:46;;;;;;;36.97;33.60;;;;;;;-141.22;100.00;65034.22;5033721;28;20433;-46
2022/12/07 03:59:15;;;;;;;37.50;33.90;;;;;;;-141.22;100.00;65034.22;5012547;28;20445;-52
2022/12/07 04:01:45;;;;;;;36.47;33.10;;;;;;;-141.22;100.00;65034.22;5012012;28;20432;-48
2022/12/07 04:04:13;;;;;;;38.47;35.43;;;;;;;-141.22;100.00;65034.22;5012198;28;20954;-51
2022/12/07 04:06:41;;;;;;;37.37;33.90;;;;;;;-141.22;100.00;65034.22;5012308;28;20436;-51
2022/12/07 04:09:08;;;;;;;36.90;33.57;;;;;;;-141.22;100.00;65034.22;5012349;28;20481;-52
2022/12/07 04:11:36;;;;;;;37.70;34.50;;;;;;;-141.22;100.00;65034.22;5011796;28;20437;-49
2022/12/07 04:14:21;;;;;;;37.07;33.80;;;;;;;-141.22;100.00;65034.22;5012109;28;20435;-53
2022/12/07 04:16:53;;;;;;;35.73;32.93;;;;;;;-141.22;100.00;65034.22;5012212;28;20437;-48
2022/12/07 04:19:23;;;;;;;37.50;34.17;;;;;;;-141.22;100.00;65034.22;5012391;28;20445;-54
2022/12/07 04:21:51;;;;;;;37.70;34.60;;;;;;;-141.22;100.00;65034.22;5011682;28;20461;-48
2022/12/07 04:24:19;;;;;;;38.43;35.10;;;;;;;-141.22;100.00;65034.22;5011068;28;20429;-49
2022/12/07 04:26:47;;;;;;;37.77;34.07;;;;;;;-141.22;100.00;65034.22;5012346;28;20433;-51
2022/12/07 04:29:16;;;;;;;36.83;33.43;;;;;;;-141.22;100.00;65034.22;5011847;28;20456;-50
2022/12/07 04:31:43;;;;;;;38.30;34.63;;;;;;;-141.22;100.00;65034.22;5011670;28;20433;-49
2022/12/07 04:34:13;;;;;;;38.23;34.90;;;;;;;-141.22;100.00;65034.22;5012044;28;20440;-50
2022/12/07 04:36:41;;;;;;;36.63;33.27;;;;;;;-141.22;100.00;65034.22;5012231;28;20439;-55
2022/12/07 04:39:18;;;;;;;37.40;34.10;;;;;;;-141.22;100.00;65034.22;5038405;28;20471;-54
2022/12/07 04:41:46;;;;;;;37.17;33.77;;;;;;;-141.22;100.00;65034.22;5051096;28;20816;-50
2022/12/07 04:44:14;;;;;;;38.27;35.30;;;;;;;-141.22;100.00;65034.22;5051460;28;20443;-54
2022/12/07 04:46:42;;;;;;;39.53;35.97;;;;;;;-141.22;100.00;65034.22;5050544;28;20958;-47
2022/12/07 04:49:11;;;;;;;38.87;35.40;;;;;;;-141.22;100.00;65034.22;5051048;28;20509;-49
2022/12/07 04:51:40;;;;;;;69.73;40.63;;;;;;;-141.22;100.00;65034.22;5050993;28;20423;-51
2022/12/07 04:54:08;;;;;;;36.30;33.33;;;;;;;-141.22;100.00;65034.22;5051291;28;20825;-46
2022/12/07 04:56:36;;;;;;;38.43;34.93;;;;;;;-141.22;100.00;65034.22;5033826;28;20744;-50
2022/12/07 04:59:05;;;;;;;39.10;35.73;;;;;;;-141.22;100.00;65034.22;5031516;28;20456;-48
2022/12/07 05:01:33;;;;;;;38.17;34.60;;;;;;;-141.22;100.00;65034.22;5031089;28;20424;-49
2022/12/07 05:04:01;;;;;;;37.47;33.73;;;;;;;-141.22;100.00;65034.22;5031367;28;20440;-51
2022/12/07 05:06:28;;;;;;;36.97;34.00;;;;;;;-141.22;100.00;65034.22;5031366;28;20432;-51
2022/12/07 05:08:57;;;;;;;37.50;34.20;;;;;;;-141.22;100.00;65034.22;5031200;28;20455;-53
2022/12/07 05:11:40;;;;;;;37.90;34.70;;;;;;;-141.22;100.00;65034.22;5031465;28;20478;-50
2022/12/07 05:14:12;;;;;;;36.70;33.73;;;;;;;-141.22;100.00;65034.22;5031145;28;20468;-54
2022/12/07 05:16:41;;;;;;;36.70;33.57;;;;;;;-141.22;100.00;65034.22;5031468;28;20504;-48
2022/12/07 05:19:10;;;;;;;38.97;35.17;;;;;;;-141.22;100.00;65034.22;5031235;28;20542;-53
2022/12/07 05:21:38;;;;;;;39.00;35.80;;;;;;;-141.22;100.00;65034.22;5030626;28;20424;-55
2022/12/07 05:24:09;;;;;;;37.17;33.80;;;;;;;-141.22;100.00;65034.22;5031206;28;20431;-53
2022/12/07 05:26:37;;;;;;;36.70;33.53;;;;;;;-141.22;100.00;65034.22;5031346;28;20435;-53
2022/12/07 05:29:05;;;;;;;36.67;33.50;;;;;;;-141.22;100.00;65034.22;5031297;28;20791;-51
2022/12/07 05:31:33;;;;;;;38.13;34.67;;;;;;;-141.22;100.00;65034.22;5030436;28;20566;-50
2022/12/07 05:34:01;;;;;;;36.47;33.50;;;;;;;-141.22;100.00;65034.22;5030958;28;20440;-53
2022/12/07 05:36:30;;;;;;;36.63;33.57;;;;;;;-141.22;100.00;65034.22;5035146;28;20436;-49
2022/12/07 05:38:58;;;;;;;35.37;32.27;;;;;;;-141.22;100.00;65034.22;5034871;28;20837;-53
2022/12/07 05:44:12;;;;;;;36.07;33.13;;;;;;;-141.22;100.00;65034.22;5034764;28;20522;-52
2022/12/07 05:46:40;;;;;;;35.50;32.50;;;;;;;-141.22;100.00;65034.22;5035054;28;20440;-54
2022/12/07 05:49:08;;;;;;;38.00;34.60;;;;;;;-141.22;100.00;65034.22;5034831;28;21014;-52
2022/12/07 05:51:35;;;;;;;37.60;34.70;;;;;;;-141.22;100.00;65034.22;5034099;28;20468;-52
2022/12/07 05:54:03;;;;;;;40.40;36.47;;;;;;;-141.22;100.00;65034.22;5034373;28;20527;-54
2022/12/07 05:56:32;;;;;;;38.70;35.20;;;;;;;-141.22;100.00;65034.22;5034348;28;20432;-54
2022/12/07 06:01:45;;;;;;;37.40;34.47;;;;;;;-141.22;100.00;65034.22;5034248;28;20424;-54
2022/12/07 06:04:13;;;;;;;38.50;35.00;;;;;;;-141.22;100.00;65034.22;5034033;28;20929;-54
2022/12/07 06:06:41;;;;;;;35.83;33.23;;;;;;;-141.22;100.00;65034.22;5034422;28;20431;-54
2022/12/07 06:09:09;;;;;;;36.30;33.40;;;;;;;-141.22;100.00;65034.22;5034112;28;20456;-54
2022/12/07 06:14:23;;;;;;;34.67;31.87;;;;;;;-141.22;100.00;65034.22;5034227;28;20428;-48
2022/12/07 06:16:50;;;;;;;33.50;30.80;;;;;;;-141.22;100.00;65034.22;5034101;28;20446;-49
2022/12/07 06:19:18;;;;;;;34.10;31.50;;;;;;;-141.22;100.00;65034.22;5034146;28;20488;-51
2022/12/07 06:21:46;;;;;;;36.53;32.80;;;;;;;-141.22;100.00;65034.22;5033555;28;20460;-51
2022/12/07 06:24:15;;;;;;;35.10;32.13;;;;;;;-141.22;100.00;65034.22;5034516;28;20917;-49
2022/12/07 06:26:45;;;;;;;34.17;31.57;;;;;;;-141.22;100.00;65034.22;5034094;28;20447;-48
2022/12/07 06:29:13;;;;;;;33.67;31.00;;;;;;;-141.22;100.00;65034.22;5034090;28;20449;-49
2022/12/07 06:31:41;;;;;;;33.03;30.67;;;;;;;-141.22;100.00;65034.22;5033536;28;20523;-47
2022/12/07 06:34:12;;;;;;;34.53;31.80;;;;;;;-141.22;100.00;65034.22;5033704;28;20436;-46
2022/12/07 06:36:40;;;;;;;33.13;30.50;;;;;;;-141.22;100.00;65034.22;5033761;28;20528;-48
2022/12/07 06:39:09;;;;;;;33.93;31.33;;;;;;;-141.22;100.00;65034.22;5033583;28;20464;-49
2022/12/07 06:41:37;;;;;;;33.17;30.50;;;;;;;-141.22;100.00;65034.22;5033137;28;20527;-48
2022/12/07 06:44:06;;;;;;;32.93;30.27;;;;;;;-141.22;100.00;65034.22;5033445;28;20463;-48
2022/12/07 06:46:35;;;;;;;32.63;30.13;;;;;;;-141.22;100.00;65034.22;5032771;28;20433;-50
2022/12/07 06:49:03;;;;;;;32.03;29.50;;;;;;;-141.22;100.00;65034.22;5033230;28;20456;-48
2022/12/07 06:51:31;;;;;;;29.57;27.70;;;;;;;-141.22;100.00;65034.22;5033098;28;20483;-46
2022/12/07 06:53:58;;;;;;;31.40;28.33;;;;;;;-141.22;100.00;65034.22;5033284;28;20434;-48
2022/12/07 06:56:26;;;;;;;32.37;29.00;;;;;;;-141.22;100.00;65034.22;5033180;28;20937;-48
2022/12/07 06:58:53;;;;;;;29.53;27.60;;;;;;;-141.22;100.00;65034.22;5033310;28;20452;-49
2022/12/07 07:01:22;;;;;;;30.07;28.23;;;;;;;-141.22;100.00;65034.22;5033221;28;20424;-46
2022/12/07 07:03:50;;;;;;;30.30;28.30;;;;;;;-141.22;100.00;65034.22;5032675;28;20590;-48
2022/12/07 07:06:18;;;;;;;28.70;26.90;;;;;;;-141.22;100.00;65034.22;5033213;28;20806;-50
2022/12/07 07:08:45;;;;;;;29.57;27.57;;;;;;;-141.22;100.00;65034.22;5033136;28;20452;-47
2022/12/07 07:11:13;;;;;;;29.83;27.60;;;;;;;-141.22;100.00;65034.22;5033116;28;20510;-48
2022/12/07 07:13:41;;;;;;;28.53;26.60;;;;;;;-141.22;100.00;65034.22;5032233;28;20464;-48
2022/12/07 07:16:08;;;;;;;28.20;26.30;;;;;;;-141.22;100.00;65034.22;5032855;28;20430;-48
2022/12/07 07:18:37;;;;;;;30.03;27.67;;;;;;;-141.22;100.00;65034.22;5033030;28;20467;-48
2022/12/07 07:21:06;;;;;;;27.90;26.07;;;;;;;-141.22;100.00;65034.22;5033185;28;20439;-44
2022/12/07 07:23:33;;;;;;;28.57;26.50;;;;;;;-141.22;100.00;65034.22;5032123;28;20814;-44
2022/12/07 07:26:01;;;;;;;28.50;26.17;;;;;;;-141.22;100.00;65034.22;5032824;28;20942;-46
2022/12/07 07:28:29;;;;;;;28.97;26.70;;;;;;;-141.22;100.00;65034.22;5032924;28;20455;-46
2022/12/07 07:30:56;;;;;;;26.53;25.03;;;;;;;-141.22;100.00;65034.22;5032934;28;20521;-45
2022/12/07 07:33:24;;;;;;;26.87;25.27;;;;;;;-141.22;100.00;65034.22;5032058;28;20518;-48
2022/12/07 07:35:53;;;;;;;26.83;25.37;;;;;;;-141.22;100.00;65034.22;5032965;28;20432;-46
2022/12/07 07:38:21;;;;;;;28.73;26.40;;;;;;;-141.22;100.00;65034.22;5032613;28;20552;-45
2022/12/07 07:40:48;;;;;;;27.13;24.80;;;;;;;-141.22;100.00;65034.22;5032631;28;20428;-49
2022/12/07 07:43:16;;;;;;;26.20;24.50;;;;;;;-141.22;100.00;65034.22;5031856;28;20460;-44
2022/12/07 07:45:44;;;;;;;25.37;23.97;;;;;;;-141.22;100.00;65034.22;5032795;28;20432;-44
2022/12/07 07:48:12;;;;;;;26.00;24.60;;;;;;;-141.22;100.00;65034.22;5032329;28;20463;-45
2022/12/07 07:50:40;;;;;;;24.90;23.60;;;;;;;-141.22;100.00;65034.22;5032428;28;20435;-44
2022/12/07 07:53:09;;;;;;;25.70;24.20;;;;;;;-141.22;100.00;65034.22;5031784;28;20455;-46
2022/12/07 07:55:36;;;;;;;26.37;24.43;;;;;;;-141.22;100.00;65034.22;5032142;28;20440;-45
2022/12/07 07:58:04;;;;;;;26.10;23.97;;;;;;;-141.22;100.00;65034.22;5032287;28;20491;-44
2022/12/07 08:00:32;;;;;;;26.23;24.00;;;;;;;-141.22;100.00;65034.22;5032476;28;20431;-46
2022/12/07 08:03:00;;;;;;;25.40;23.83;;;;;;;-141.22;100.00;65034.22;5031773;28;20456;-46
2022/12/07 08:05:27;;;;;;;26.43;24.53;;;;;;;-141.22;100.00;65034.22;5032126;28;20430;-47
2022/12/07 08:07:55;;;;;;;26.50;24.60;;;;;;;-141.22;100.00;65034.22;5032064;28;20531;-48
2022/12/07 08:10:24;;;;;;;26.87;25.13;;;;;;;-141.22;100.00;65034.22;5032052;28;20433;-44
2022/12/07 08:15:39;;;;;;;26.53;24.87;;;;;;;-141.22;100.00;65034.22;5031990;28;20424;-44
2022/12/07 08:18:07;;;;;;;26.33;24.57;;;;;;;-141.22;100.00;65034.22;5031922;28;20861;-46
2022/12/07 08:20:36;;;;;;;25.47;23.97;;;;;;;-141.22;100.00;65034.22;5032027;28;20519;-50
2022/12/07 08:23:04;;;;;;;27.27;25.13;;;;;;;-141.22;100.00;65034.22;5031415;28;20461;-50
2022/12/07 08:25:33;;;;;;;26.97;24.43;;;;;;;-141.22;100.00;65034.22;5031635;28;20432;-49
2022/12/07 08:28:01;;;;;;;26.13;24.40;;;;;;;-141.22;100.00;65034.22;5031918;28;20436;-49
2022/12/07 08:30:30;;;;;;;26.60;24.60;;;;;;;-141.22;100.00;65034.22;5031862;28;20436;-54
2022/12/07 08:32:58;;;;;;;26.00;24.40;;;;;;;-141.22;100.00;65034.22;5031404;28;20566;-49
2022/12/07 08:35:26;;;;;;;26.80;25.13;;;;;;;-141.22;100.00;65034.22;5031717;28;20439;-49
2022/12/07 08:37:54;;;;;;;25.83;24.17;;;;;;;-141.22;100.00;65034.22;5031704;28;20523;-48
2022/12/07 08:40:22;;;;;;;26.30;24.67;;;;;;;-141.22;100.00;65034.22;5031676;28;20432;-46
2022/12/07 08:42:51;;;;;;;26.13;24.73;;;;;;;-141.22;100.00;65034.22;5031276;28;20456;-49
2022/12/07 08:45:20;;;;;;;26.70;25.07;;;;;;;-141.22;100.00;65034.22;5031416;28;20439;-48
2022/12/07 08:47:58;;;;;;;26.07;24.60;;;;;;;-141.22;100.00;65034.22;5031387;28;20427;-51
2022/12/07 08:50:26;;;;;;;26.20;24.90;;;;;;;-141.22;100.00;65034.22;5031778;28;20428;-50
2022/12/07 08:52:56;;;;;;;25.70;24.20;;;;;;;-141.22;100.00;65034.22;5031230;28;20468;-48
2022/12/07 08:55:24;;;;;;;26.07;24.57;;;;;;;-141.22;100.00;65034.22;5031349;28;20438;-49
2022/12/07 08:57:53;;;;;;;26.63;24.60;;;;;;;-141.22;100.00;65034.22;5031478;28;20526;-51
2022/12/07 09:00:21;;;;;;;26.83;25.07;;;;;;;-141.22;100.00;65034.22;5031516;28;21036;-48
2022/12/07 09:02:49;;;;;;;26.57;25.00;;;;;;;-141.22;100.00;65034.22;5031229;28;20981;-50
2022/12/07 09:05:17;;;;;;;26.60;25.10;;;;;;;-141.22;100.00;65034.22;5031426;28;20436;-50
2022/12/07 09:07:48;;;;;;;26.63;24.50;;;;;;;-141.22;100.00;65034.22;5031281;28;20443;-46
2022/12/07 09:10:16;;;;;;;26.67;24.97;;;;;;;-141.22;100.00;65034.22;5033310;28;20463;-53
2022/12/07 09:12:43;;;;;;;26.87;25.47;;;;;;;-141.22;100.00;65034.22;5034896;28;20468;-53
2022/12/07 09:15:12;;;;;;;26.23;24.53;;;;;;;-141.22;100.00;65034.22;5035585;28;20428;-50
2022/12/07 09:17:40;;;;;;;26.10;24.20;;;;;;;-141.22;100.00;65034.22;5035302;28;20475;-53
2022/12/07 09:20:09;;;;;;;26.10;24.27;;;;;;;-141.22;100.00;65034.22;5035195;28;20443;-50
2022/12/07 09:22:36;;;;;;;25.03;23.73;;;;;;;-141.22;100.00;65034.22;5034962;28;20466;-53
2022/12/07 09:25:05;;;;;;;25.20;23.80;;;;;;;-141.22;100.00;65034.22;5035010;28;20432;-49
2022/12/07 09:27:32;;;;;;;27.43;25.83;;;;;;;-141.22;100.00;65034.22;5035066;28;20424;-52
2022/12/07 09:30:00;;;;;;;25.57;24.10;;;;;;;-141.22;100.00;65034.22;5035217;28;20535;-51
2022/12/07 09:32:30;;;;;;;26.97;24.50;;;;;;;-141.22;100.00;65034.22;5034431;28;20484;-53
2022/12/07 09:34:57;;;;;;;26.70;25.23;;;;;;;-141.22;100.00;65034.22;5034918;28;20486;-51
2022/12/07 09:37:25;;;;;;;26.00;24.77;;;;;;;-141.22;100.00;65034.22;5034875;28;20440;-50
2022/12/07 09:39:53;;;;;;;25.93;24.73;;;;;;;-141.22;100.00;65034.22;5034986;28;20546;-54
2022/12/07 09:42:29;;;;;;;25.53;24.23;;;;;;;-141.22;100.00;65034.22;5034616;28;20466;-50
2022/12/07 09:44:58;;;;;;;26.67;24.90;;;;;;;-141.22;100.00;65034.22;5034686;28;20771;-53
2022/12/07 09:47:26;;;;;;;25.43;24.23;;;;;;;-141.22;100.00;65034.22;5034751;28;20443;-49
2022/12/07 09:49:59;;;;;;;25.80;24.13;;;;;;;-141.22;100.00;65034.22;5034706;28;20451;-53
2022/12/07 09:52:29;;;;;;;25.47;24.07;;;;;;;-141.22;100.00;65034.22;5034098;28;21040;-54
2022/12/07 09:55:11;;;;;;;25.40;24.10;;;;;;;-141.22;100.00;65034.22;5034470;28;20424;-56
2022/12/07 09:57:39;;;;;;;25.20;23.73;;;;;;;-141.22;100.00;65034.22;5034294;28;20960;-53
2022/12/07 10:00:14;;;;;;;25.87;24.67;;;;;;;-141.22;100.00;65034.22;5034588;28;20455;-56
2022/12/07 10:02:45;;;;;;;25.20;23.70;;;;;;;-141.22;100.00;65034.22;5034010;28;21027;-50
2022/12/07 10:05:17;;;;;;;25.27;23.67;;;;;;;-141.22;100.00;65034.22;5034483;28;20424;-53
2022/12/07 10:07:51;;;;;;;24.53;23.07;;;;;;;-141.22;100.00;65034.22;5034276;28;20440;-55
2022/12/07 10:10:25;;;;;;;23.70;22.70;;;;;;;-141.22;100.00;65034.22;5034425;28;20431;-49
2022/12/07 10:12:56;;;;;;;24.60;23.20;;;;;;;-141.22;100.00;65034.22;5033841;28;20927;-49
2022/12/07 10:15:24;;;;;;;24.53;22.93;;;;;;;-141.22;100.00;65034.22;5034074;28;20420;-56
2022/12/07 10:17:53;;;;;;;25.63;23.60;;;;;;;-141.22;100.00;65034.22;5034288;28;20439;-56
2022/12/07 10:20:24;;;;;;;23.87;22.77;;;;;;;-141.22;100.00;65034.22;5034084;28;20433;-50
2022/12/07 10:23:00;;;;;;;23.50;22.40;;;;;;;-141.22;100.00;65034.22;5032619;28;20989;-51
2022/12/07 10:25:32;;;;;;;23.50;22.50;;;;;;;-141.22;100.00;65034.22;5033936;28;20552;-56
2022/12/07 10:28:18;;;;;;;23.60;22.20;;;;;;;-141.22;100.00;65034.22;5034090;28;20436;-56
2022/12/07 10:30:58;;;;;;;23.67;22.37;;;;;;;-141.22;100.00;65034.22;5034127;28;20439;-54
2022/12/07 10:33:32;;;;;;;23.67;22.67;;;;;;;-141.22;100.00;65034.22;5033432;28;20913;-56
2022/12/07 10:36:17;;;;;;;24.23;23.00;;;;;;;-141.22;100.00;65034.22;5034035;28;20861;-54
2022/12/07 10:38:47;;;;;;;23.33;22.33;;;;;;;-141.22;100.00;65034.22;5033769;28;20555;-49
2022/12/07 10:41:15;;;;;;;24.93;23.73;;;;;;;-141.22;100.00;65034.22;5033769;28;20439;-49
2022/12/07 10:43:51;;;;;;;24.70;23.20;;;;;;;-141.22;100.00;65034.22;5033078;28;20460;-47
2022/12/07 10:46:43;;;;;;;24.07;22.83;;;;;;;-141.22;100.00;65034.22;5033655;28;20419;-49
2022/12/07 10:49:54;;;;;;;24.10;23.00;;;;;;;-141.22;100.00;65034.22;5033782;28;20463;-52
2022/12/07 10:52:40;;;;;;;24.07;23.07;;;;;;;-141.22;100.00;65034.22;4976139;28;20470;-50
2022/12/07 10:55:20;;;;;;;23.40;22.40;;;;;;;-141.22;100.00;65034.22;5033345;28;20439;-48
2022/12/07 10:58:14;;;;;;;23.30;22.30;;;;;;;-141.22;100.00;65034.22;5033398;28;20436;-46
2022/12/07 11:00:48;;;;;;;23.20;22.30;;;;;;;-141.22;100.00;65034.22;5033396;28;20455;-50
2022/12/07 11:03:44;;;;;;;24.00;22.90;;;;;;;-141.22;100.00;65034.22;5032859;28;20529;-48
2022/12/07 11:06:24;;;;;;;23.83;22.50;;;;;;;-141.22;100.00;65034.22;4992594;28;20945;-48
2022/12/07 11:09:24;;;;;;;23.40;22.43;;;;;;;-141.22;100.00;65034.22;5033308;28;20547;-53
2022/12/07 11:12:22;;;;;;;23.87;22.90;;;;;;;-141.22;100.00;65034.22;4956372;28;20460;-53
2022/12/07 11:14:59;;;;;;;24.90;23.80;;;;;;;-141.22;100.00;65034.22;5033003;28;20427;-51
2022/12/07 11:17:36;;;;;;;24.30;23.10;;;;;;;-141.22;100.00;65034.22;5033148;28;20432;-55
2022/12/07 11:20:19;;;;;;;24.20;23.10;;;;;;;-141.22;100.00;65034.22;5033031;28;20447;-50
2022/12/07 11:22:56;;;;;;;24.60;23.10;;;;;;;-141.22;100.00;65034.22;5032619;28;20503;-49